sensor_id;sensor_type;location;lat;lon;timestamp;P1;durP1;ratioP1;P2;durP2;ratioP2
36221;SDS011;22266;52.340;4.962;2023-06-26T00:01:00;10.00;;;10.00;;
36221;SDS011;22266;52.340;4.962;2023-06-26T00:03:27;10.00;;;9.25;;
36221;SDS011;22266;52.340;4.962;2023-06-26T00:05:55;7.75;;;7.75;;
36221;SDS011;22266;52.340;4.962;2023-06-26T00:08:27;11.75;;;10.50;;
36221;SDS011;22266;52.340;4.962;2023-06-26T00:10:54;9.50;;;9.50;;
36221;SDS011;22266;52.340;4.962;2023-06-26T00:13:21;9.00;;;9.00;;
36221;SDS011;22266;52.340;4.962;2023-06-26T00:15:48;9.75;;;9.75;;
36221;SDS011;22266;52.340;4.962;2023-06-26T00:18:14;11.00;;;9.75;;
36221;SDS011;22266;52.340;4.962;2023-06-26T00:20:41;8.75;;;8.75;;
36221;SDS011;22266;52.340;4.962;2023-06-26T00:23:07;9.00;;;8.50;;
36221;SDS011;22266;52.340;4.962;2023-06-26T00:25:34;10.00;;;10.00;;
36221;SDS011;22266;52.340;4.962;2023-06-26T00:28:01;8.75;;;8.00;;
36221;SDS011;22266;52.340;4.962;2023-06-26T00:30:28;11.25;;;10.50;;
36221;SDS011;22266;52.340;4.962;2023-06-26T00:32:56;8.75;;;8.50;;
36221;SDS011;22266;52.340;4.962;2023-06-26T00:35:23;9.00;;;8.75;;
36221;SDS011;22266;52.340;4.962;2023-06-26T00:37:49;11.25;;;9.50;;
36221;SDS011;22266;52.340;4.962;2023-06-26T00:40:16;10.25;;;10.25;;
36221;SDS011;22266;52.340;4.962;2023-06-26T00:42:43;10.25;;;10.25;;
36221;SDS011;22266;52.340;4.962;2023-06-26T00:45:09;9.75;;;9.75;;
36221;SDS011;22266;52.340;4.962;2023-06-26T00:47:36;8.00;;;8.00;;
36221;SDS011;22266;52.340;4.962;2023-06-26T00:50:03;7.75;;;7.25;;
36221;SDS011;22266;52.340;4.962;2023-06-26T00:52:31;10.50;;;10.50;;
36221;SDS011;22266;52.340;4.962;2023-06-26T00:54:58;10.50;;;10.50;;
36221;SDS011;22266;52.340;4.962;2023-06-26T00:57:25;8.50;;;8.50;;
36221;SDS011;22266;52.340;4.962;2023-06-26T00:59:52;8.50;;;8.50;;
36221;SDS011;22266;52.340;4.962;2023-06-26T01:02:20;10.00;;;10.00;;
36221;SDS011;22266;52.340;4.962;2023-06-26T01:04:49;7.75;;;7.50;;
36221;SDS011;22266;52.340;4.962;2023-06-26T01:07:16;6.75;;;6.75;;
36221;SDS011;22266;52.340;4.962;2023-06-26T01:09:47;9.75;;;8.25;;
36221;SDS011;22266;52.340;4.962;2023-06-26T01:12:14;9.50;;;9.50;;
36221;SDS011;22266;52.340;4.962;2023-06-26T01:14:41;10.00;;;8.00;;
36221;SDS011;22266;52.340;4.962;2023-06-26T01:17:08;8.00;;;6.25;;
36221;SDS011;22266;52.340;4.962;2023-06-26T01:19:43;8.25;;;7.50;;
36221;SDS011;22266;52.340;4.962;2023-06-26T01:25:18;9.00;;;6.50;;
36221;SDS011;22266;52.340;4.962;2023-06-26T01:27:47;7.00;;;7.00;;
36221;SDS011;22266;52.340;4.962;2023-06-26T01:30:16;7.25;;;7.25;;
36221;SDS011;22266;52.340;4.962;2023-06-26T01:32:44;6.00;;;5.00;;
36221;SDS011;22266;52.340;4.962;2023-06-26T01:35:11;8.25;;;8.25;;
36221;SDS011;22266;52.340;4.962;2023-06-26T01:37:39;9.75;;;7.00;;
36221;SDS011;22266;52.340;4.962;2023-06-26T01:40:07;6.50;;;5.25;;
36221;SDS011;22266;52.340;4.962;2023-06-26T01:42:34;6.50;;;6.50;;
36221;SDS011;22266;52.340;4.962;2023-06-26T01:45:09;8.00;;;7.00;;
36221;SDS011;22266;52.340;4.962;2023-06-26T01:47:42;6.50;;;6.50;;
36221;SDS011;22266;52.340;4.962;2023-06-26T01:50:17;8.50;;;8.00;;
36221;SDS011;22266;52.340;4.962;2023-06-26T01:58:17;9.00;;;9.00;;
36221;SDS011;22266;52.340;4.962;2023-06-26T02:00:48;9.75;;;7.00;;
36221;SDS011;22266;52.340;4.962;2023-06-26T02:03:14;9.25;;;9.00;;
36221;SDS011;22266;52.340;4.962;2023-06-26T02:05:41;5.50;;;5.50;;
36221;SDS011;22266;52.340;4.962;2023-06-26T02:08:08;9.75;;;8.00;;
36221;SDS011;22266;52.340;4.962;2023-06-26T02:10:35;7.25;;;6.00;;
36221;SDS011;22266;52.340;4.962;2023-06-26T02:13:02;7.00;;;7.00;;
36221;SDS011;22266;52.340;4.962;2023-06-26T02:15:29;8.50;;;6.50;;
36221;SDS011;22266;52.340;4.962;2023-06-26T02:17:55;8.50;;;7.75;;
36221;SDS011;22266;52.340;4.962;2023-06-26T02:20:23;10.75;;;8.00;;
36221;SDS011;22266;52.340;4.962;2023-06-26T02:22:49;6.75;;;6.75;;
36221;SDS011;22266;52.340;4.962;2023-06-26T02:25:17;6.00;;;6.00;;
36221;SDS011;22266;52.340;4.962;2023-06-26T02:27:44;9.00;;;6.25;;
36221;SDS011;22266;52.340;4.962;2023-06-26T02:30:11;7.00;;;7.00;;
36221;SDS011;22266;52.340;4.962;2023-06-26T02:32:37;5.50;;;4.75;;
36221;SDS011;22266;52.340;4.962;2023-06-26T02:35:04;6.00;;;6.00;;
36221;SDS011;22266;52.340;4.962;2023-06-26T02:37:31;8.25;;;7.25;;
36221;SDS011;22266;52.340;4.962;2023-06-26T02:39:58;7.75;;;6.25;;
36221;SDS011;22266;52.340;4.962;2023-06-26T02:42:25;9.00;;;9.00;;
36221;SDS011;22266;52.340;4.962;2023-06-26T02:44:51;8.75;;;8.50;;
36221;SDS011;22266;52.340;4.962;2023-06-26T02:47:18;10.25;;;9.50;;
36221;SDS011;22266;52.340;4.962;2023-06-26T02:49:45;8.50;;;7.00;;
36221;SDS011;22266;52.340;4.962;2023-06-26T02:52:11;9.00;;;8.50;;
36221;SDS011;22266;52.340;4.962;2023-06-26T02:54:38;6.50;;;6.50;;
36221;SDS011;22266;52.340;4.962;2023-06-26T02:57:04;8.50;;;8.25;;
36221;SDS011;22266;52.340;4.962;2023-06-26T02:59:32;11.50;;;8.75;;
36221;SDS011;22266;52.340;4.962;2023-06-26T03:01:59;9.00;;;8.25;;
36221;SDS011;22266;52.340;4.962;2023-06-26T03:04:34;5.75;;;5.25;;
36221;SDS011;22266;52.340;4.962;2023-06-26T03:07:04;9.75;;;6.75;;
36221;SDS011;22266;52.340;4.962;2023-06-26T03:09:31;10.25;;;10.25;;
36221;SDS011;22266;52.340;4.962;2023-06-26T03:11:57;8.50;;;6.25;;
36221;SDS011;22266;52.340;4.962;2023-06-26T03:14:24;7.50;;;6.50;;
36221;SDS011;22266;52.340;4.962;2023-06-26T03:16:50;8.75;;;6.50;;
36221;SDS011;22266;52.340;4.962;2023-06-26T03:19:19;8.00;;;7.75;;
36221;SDS011;22266;52.340;4.962;2023-06-26T03:22:08;7.75;;;7.75;;
36221;SDS011;22266;52.340;4.962;2023-06-26T03:24:35;8.50;;;8.00;;
36221;SDS011;22266;52.340;4.962;2023-06-26T03:27:01;5.75;;;5.50;;
36221;SDS011;22266;52.340;4.962;2023-06-26T03:29:29;7.75;;;7.75;;
36221;SDS011;22266;52.340;4.962;2023-06-26T03:31:56;8.00;;;8.00;;
36221;SDS011;22266;52.340;4.962;2023-06-26T03:34:23;5.00;;;5.00;;
36221;SDS011;22266;52.340;4.962;2023-06-26T03:36:49;9.25;;;9.00;;
36221;SDS011;22266;52.340;4.962;2023-06-26T03:39:16;9.75;;;8.75;;
36221;SDS011;22266;52.340;4.962;2023-06-26T03:41:43;8.25;;;6.00;;
36221;SDS011;22266;52.340;4.962;2023-06-26T03:44:09;3.50;;;3.00;;
36221;SDS011;22266;52.340;4.962;2023-06-26T03:46:43;5.00;;;5.00;;
36221;SDS011;22266;52.340;4.962;2023-06-26T03:49:10;9.25;;;7.75;;
36221;SDS011;22266;52.340;4.962;2023-06-26T03:51:37;4.50;;;4.50;;
36221;SDS011;22266;52.340;4.962;2023-06-26T03:54:04;5.75;;;5.00;;
36221;SDS011;22266;52.340;4.962;2023-06-26T03:56:30;5.00;;;4.00;;
36221;SDS011;22266;52.340;4.962;2023-06-26T03:58:57;6.00;;;6.00;;
36221;SDS011;22266;52.340;4.962;2023-06-26T04:01:25;4.50;;;3.25;;
36221;SDS011;22266;52.340;4.962;2023-06-26T04:03:52;7.25;;;4.50;;
36221;SDS011;22266;52.340;4.962;2023-06-26T04:06:18;4.25;;;4.00;;
36221;SDS011;22266;52.340;4.962;2023-06-26T04:08:45;2.75;;;2.75;;
36221;SDS011;22266;52.340;4.962;2023-06-26T04:11:11;3.00;;;3.00;;
36221;SDS011;22266;52.340;4.962;2023-06-26T04:13:38;4.00;;;4.00;;
36221;SDS011;22266;52.340;4.962;2023-06-26T04:16:04;6.25;;;6.00;;
36221;SDS011;22266;52.340;4.962;2023-06-26T04:18:32;4.50;;;4.00;;
36221;SDS011;22266;52.340;4.962;2023-06-26T04:23:39;5.75;;;4.00;;
36221;SDS011;22266;52.340;4.962;2023-06-26T04:26:07;3.00;;;3.00;;
36221;SDS011;22266;52.340;4.962;2023-06-26T04:28:37;4.00;;;4.00;;
36221;SDS011;22266;52.340;4.962;2023-06-26T04:31:04;3.00;;;3.00;;
36221;SDS011;22266;52.340;4.962;2023-06-26T04:33:31;4.00;;;4.00;;
36221;SDS011;22266;52.340;4.962;2023-06-26T04:35:58;5.25;;;5.25;;
36221;SDS011;22266;52.340;4.962;2023-06-26T04:38:27;9.75;;;7.75;;
36221;SDS011;22266;52.340;4.962;2023-06-26T04:40:54;5.00;;;3.50;;
36221;SDS011;22266;52.340;4.962;2023-06-26T04:43:20;4.25;;;2.25;;
36221;SDS011;22266;52.340;4.962;2023-06-26T04:45:47;2.75;;;2.00;;
36221;SDS011;22266;52.340;4.962;2023-06-26T04:48:14;2.00;;;2.00;;
36221;SDS011;22266;52.340;4.962;2023-06-26T04:50:40;2.75;;;2.25;;
36221;SDS011;22266;52.340;4.962;2023-06-26T04:53:07;3.00;;;3.00;;
36221;SDS011;22266;52.340;4.962;2023-06-26T04:55:34;3.00;;;2.00;;
36221;SDS011;22266;52.340;4.962;2023-06-26T04:58:04;2.00;;;2.00;;
36221;SDS011;22266;52.340;4.962;2023-06-26T05:00:31;4.00;;;3.00;;
36221;SDS011;22266;52.340;4.962;2023-06-26T05:02:58;2.25;;;2.25;;
36221;SDS011;22266;52.340;4.962;2023-06-26T05:05:27;3.25;;;3.25;;
36221;SDS011;22266;52.340;4.962;2023-06-26T05:07:54;4.00;;;3.75;;
36221;SDS011;22266;52.340;4.962;2023-06-26T05:10:22;2.00;;;2.00;;
36221;SDS011;22266;52.340;4.962;2023-06-26T05:12:48;7.25;;;4.00;;
36221;SDS011;22266;52.340;4.962;2023-06-26T05:15:15;2.00;;;2.00;;
36221;SDS011;22266;52.340;4.962;2023-06-26T05:17:42;6.00;;;4.00;;
36221;SDS011;22266;52.340;4.962;2023-06-26T05:20:08;3.25;;;3.25;;
36221;SDS011;22266;52.340;4.962;2023-06-26T05:22:35;3.50;;;3.50;;
36221;SDS011;22266;52.340;4.962;2023-06-26T05:25:05;1.75;;;1.25;;
36221;SDS011;22266;52.340;4.962;2023-06-26T05:27:35;1.50;;;1.50;;
36221;SDS011;22266;52.340;4.962;2023-06-26T05:30:02;3.00;;;2.00;;
36221;SDS011;22266;52.340;4.962;2023-06-26T05:32:29;2.50;;;2.00;;
36221;SDS011;22266;52.340;4.962;2023-06-26T05:35:00;2.00;;;2.00;;
36221;SDS011;22266;52.340;4.962;2023-06-26T05:37:28;3.00;;;2.75;;
36221;SDS011;22266;52.340;4.962;2023-06-26T05:39:57;2.75;;;1.75;;
36221;SDS011;22266;52.340;4.962;2023-06-26T05:42:23;2.25;;;2.25;;
36221;SDS011;22266;52.340;4.962;2023-06-26T05:44:50;2.75;;;2.75;;
36221;SDS011;22266;52.340;4.962;2023-06-26T05:47:17;3.75;;;3.75;;
36221;SDS011;22266;52.340;4.962;2023-06-26T05:49:43;1.75;;;1.75;;
36221;SDS011;22266;52.340;4.962;2023-06-26T05:52:10;3.50;;;3.50;;
36221;SDS011;22266;52.340;4.962;2023-06-26T05:54:37;2.00;;;2.00;;
36221;SDS011;22266;52.340;4.962;2023-06-26T05:57:04;1.50;;;1.50;;
36221;SDS011;22266;52.340;4.962;2023-06-26T05:59:31;1.50;;;1.50;;
36221;SDS011;22266;52.340;4.962;2023-06-26T06:01:58;3.00;;;3.00;;
36221;SDS011;22266;52.340;4.962;2023-06-26T06:04:25;3.00;;;3.00;;
36221;SDS011;22266;52.340;4.962;2023-06-26T06:06:51;2.00;;;2.00;;
36221;SDS011;22266;52.340;4.962;2023-06-26T06:09:18;3.75;;;3.75;;
36221;SDS011;22266;52.340;4.962;2023-06-26T06:11:44;3.00;;;2.00;;
36221;SDS011;22266;52.340;4.962;2023-06-26T06:14:11;2.50;;;2.50;;
36221;SDS011;22266;52.340;4.962;2023-06-26T06:16:37;3.25;;;3.25;;
36221;SDS011;22266;52.340;4.962;2023-06-26T06:19:04;2.00;;;2.00;;
36221;SDS011;22266;52.340;4.962;2023-06-26T06:21:33;6.00;;;3.75;;
36221;SDS011;22266;52.340;4.962;2023-06-26T06:23:59;3.00;;;3.00;;
36221;SDS011;22266;52.340;4.962;2023-06-26T06:26:27;3.50;;;3.50;;
36221;SDS011;22266;52.340;4.962;2023-06-26T06:28:53;4.50;;;3.50;;
36221;SDS011;22266;52.340;4.962;2023-06-26T06:31:20;3.00;;;3.00;;
36221;SDS011;22266;52.340;4.962;2023-06-26T06:33:46;3.00;;;3.00;;
36221;SDS011;22266;52.340;4.962;2023-06-26T06:36:13;4.75;;;3.50;;
36221;SDS011;22266;52.340;4.962;2023-06-26T06:38:42;1.50;;;1.50;;
36221;SDS011;22266;52.340;4.962;2023-06-26T06:41:10;2.00;;;2.00;;
36221;SDS011;22266;52.340;4.962;2023-06-26T06:43:36;4.00;;;4.00;;
36221;SDS011;22266;52.340;4.962;2023-06-26T06:46:03;5.75;;;5.25;;
36221;SDS011;22266;52.340;4.962;2023-06-26T06:48:30;2.00;;;1.50;;
36221;SDS011;22266;52.340;4.962;2023-06-26T06:50:57;2.50;;;2.50;;
36221;SDS011;22266;52.340;4.962;2023-06-26T06:53:24;4.00;;;4.00;;
36221;SDS011;22266;52.340;4.962;2023-06-26T06:55:50;3.00;;;3.00;;
36221;SDS011;22266;52.340;4.962;2023-06-26T06:58:17;2.50;;;2.00;;
36221;SDS011;22266;52.340;4.962;2023-06-26T07:00:45;5.00;;;4.00;;
36221;SDS011;22266;52.340;4.962;2023-06-26T07:03:11;3.00;;;3.00;;
36221;SDS011;22266;52.340;4.962;2023-06-26T07:05:38;4.25;;;3.00;;
36221;SDS011;22266;52.340;4.962;2023-06-26T07:08:05;3.75;;;3.00;;
36221;SDS011;22266;52.340;4.962;2023-06-26T07:10:31;2.75;;;2.75;;
36221;SDS011;22266;52.340;4.962;2023-06-26T07:12:58;3.25;;;3.25;;
36221;SDS011;22266;52.340;4.962;2023-06-26T07:15:24;3.00;;;3.00;;
36221;SDS011;22266;52.340;4.962;2023-06-26T07:17:52;2.00;;;2.00;;
36221;SDS011;22266;52.340;4.962;2023-06-26T07:20:19;3.00;;;3.00;;
36221;SDS011;22266;52.340;4.962;2023-06-26T07:22:46;2.00;;;1.50;;
36221;SDS011;22266;52.340;4.962;2023-06-26T07:25:13;2.00;;;2.00;;
36221;SDS011;22266;52.340;4.962;2023-06-26T07:27:40;2.25;;;2.25;;
36221;SDS011;22266;52.340;4.962;2023-06-26T07:30:07;2.00;;;2.00;;
36221;SDS011;22266;52.340;4.962;2023-06-26T07:32:37;4.00;;;2.00;;
36221;SDS011;22266;52.340;4.962;2023-06-26T07:35:04;3.00;;;3.00;;
36221;SDS011;22266;52.340;4.962;2023-06-26T07:37:31;1.50;;;1.50;;
36221;SDS011;22266;52.340;4.962;2023-06-26T07:39:58;6.75;;;2.00;;
36221;SDS011;22266;52.340;4.962;2023-06-26T07:42:24;1.75;;;1.50;;
36221;SDS011;22266;52.340;4.962;2023-06-26T07:44:51;1.25;;;1.00;;
36221;SDS011;22266;52.340;4.962;2023-06-26T07:47:17;2.00;;;2.00;;
36221;SDS011;22266;52.340;4.962;2023-06-26T07:49:44;1.00;;;1.00;;
36221;SDS011;22266;52.340;4.962;2023-06-26T07:52:10;2.75;;;2.75;;
36221;SDS011;22266;52.340;4.962;2023-06-26T07:54:37;2.00;;;2.00;;
36221;SDS011;22266;52.340;4.962;2023-06-26T07:57:04;2.25;;;2.25;;
36221;SDS011;22266;52.340;4.962;2023-06-26T07:59:35;2.75;;;2.75;;
36221;SDS011;22266;52.340;4.962;2023-06-26T08:02:02;4.00;;;2.25;;
36221;SDS011;22266;52.340;4.962;2023-06-26T08:04:29;3.00;;;1.75;;
36221;SDS011;22266;52.340;4.962;2023-06-26T08:06:58;2.75;;;2.00;;
36221;SDS011;22266;52.340;4.962;2023-06-26T08:09:27;3.75;;;2.50;;
36221;SDS011;22266;52.340;4.962;2023-06-26T08:11:54;1.75;;;1.75;;
36221;SDS011;22266;52.340;4.962;2023-06-26T08:14:21;2.25;;;2.25;;
36221;SDS011;22266;52.340;4.962;2023-06-26T08:16:48;2.50;;;2.50;;
36221;SDS011;22266;52.340;4.962;2023-06-26T08:19:15;1.00;;;1.00;;
36221;SDS011;22266;52.340;4.962;2023-06-26T08:21:43;1.75;;;1.75;;
36221;SDS011;22266;52.340;4.962;2023-06-26T08:24:11;2.50;;;1.50;;
36221;SDS011;22266;52.340;4.962;2023-06-26T08:26:39;2.00;;;2.00;;
36221;SDS011;22266;52.340;4.962;2023-06-26T08:29:06;1.75;;;1.75;;
36221;SDS011;22266;52.340;4.962;2023-06-26T08:31:38;2.00;;;2.00;;
36221;SDS011;22266;52.340;4.962;2023-06-26T08:34:06;2.50;;;1.75;;
36221;SDS011;22266;52.340;4.962;2023-06-26T08:36:33;1.00;;;1.00;;
36221;SDS011;22266;52.340;4.962;2023-06-26T08:39:00;2.75;;;2.75;;
36221;SDS011;22266;52.340;4.962;2023-06-26T08:41:26;2.75;;;2.00;;
36221;SDS011;22266;52.340;4.962;2023-06-26T08:43:53;2.25;;;2.25;;
36221;SDS011;22266;52.340;4.962;2023-06-26T08:46:20;1.75;;;1.25;;
36221;SDS011;22266;52.340;4.962;2023-06-26T08:48:53;2.00;;;2.00;;
36221;SDS011;22266;52.340;4.962;2023-06-26T08:51:23;3.00;;;3.00;;
36221;SDS011;22266;52.340;4.962;2023-06-26T08:53:58;3.75;;;3.00;;
36221;SDS011;22266;52.340;4.962;2023-06-26T08:56:35;3.00;;;2.00;;
36221;SDS011;22266;52.340;4.962;2023-06-26T08:59:04;2.50;;;2.50;;
36221;SDS011;22266;52.340;4.962;2023-06-26T09:01:32;1.75;;;1.00;;
36221;SDS011;22266;52.340;4.962;2023-06-26T09:03:58;3.25;;;3.25;;
36221;SDS011;22266;52.340;4.962;2023-06-26T09:06:25;1.00;;;0.50;;
36221;SDS011;22266;52.340;4.962;2023-06-26T09:08:52;3.00;;;2.25;;
36221;SDS011;22266;52.340;4.962;2023-06-26T09:11:18;2.50;;;2.50;;
36221;SDS011;22266;52.340;4.962;2023-06-26T09:13:45;1.00;;;1.00;;
36221;SDS011;22266;52.340;4.962;2023-06-26T09:16:13;1.25;;;1.00;;
36221;SDS011;22266;52.340;4.962;2023-06-26T09:18:40;1.25;;;1.25;;
36221;SDS011;22266;52.340;4.962;2023-06-26T09:21:09;2.50;;;1.50;;
36221;SDS011;22266;52.340;4.962;2023-06-26T09:23:36;1.00;;;1.00;;
36221;SDS011;22266;52.340;4.962;2023-06-26T09:26:05;1.00;;;1.00;;
36221;SDS011;22266;52.340;4.962;2023-06-26T09:28:32;2.00;;;2.00;;
36221;SDS011;22266;52.340;4.962;2023-06-26T09:31:01;0.25;;;0.25;;
36221;SDS011;22266;52.340;4.962;2023-06-26T09:33:37;1.00;;;0.75;;
36221;SDS011;22266;52.340;4.962;2023-06-26T09:36:06;1.00;;;0.75;;
36221;SDS011;22266;52.340;4.962;2023-06-26T09:38:34;0.00;;;0.00;;
36221;SDS011;22266;52.340;4.962;2023-06-26T09:41:02;1.25;;;1.25;;
36221;SDS011;22266;52.340;4.962;2023-06-26T09:43:29;1.00;;;0.50;;
36221;SDS011;22266;52.340;4.962;2023-06-26T09:45:57;3.50;;;2.50;;
36221;SDS011;22266;52.340;4.962;2023-06-26T09:48:24;1.75;;;1.00;;
36221;SDS011;22266;52.340;4.962;2023-06-26T09:50:53;1.00;;;1.00;;
36221;SDS011;22266;52.340;4.962;2023-06-26T09:53:36;0.00;;;0.00;;
36221;SDS011;22266;52.340;4.962;2023-06-26T09:56:06;0.00;;;0.00;;
36221;SDS011;22266;52.340;4.962;2023-06-26T09:58:33;0.50;;;0.50;;
36221;SDS011;22266;52.340;4.962;2023-06-26T10:01:02;0.50;;;0.50;;
36221;SDS011;22266;52.340;4.962;2023-06-26T10:03:29;2.25;;;1.25;;
36221;SDS011;22266;52.340;4.962;2023-06-26T10:05:56;0.00;;;0.00;;
36221;SDS011;22266;52.340;4.962;2023-06-26T10:08:24;0.00;;;0.00;;
36221;SDS011;22266;52.340;4.962;2023-06-26T10:10:50;1.00;;;1.00;;
36221;SDS011;22266;52.340;4.962;2023-06-26T10:13:20;1.25;;;0.00;;
36221;SDS011;22266;52.340;4.962;2023-06-26T10:15:49;1.00;;;1.00;;
36221;SDS011;22266;52.340;4.962;2023-06-26T10:18:17;1.00;;;1.00;;
36221;SDS011;22266;52.340;4.962;2023-06-26T10:20:45;0.00;;;0.00;;
36221;SDS011;22266;52.340;4.962;2023-06-26T10:23:14;0.75;;;0.75;;
36221;SDS011;22266;52.340;4.962;2023-06-26T10:25:44;1.00;;;1.00;;
36221;SDS011;22266;52.340;4.962;2023-06-26T10:28:14;1.50;;;1.00;;
36221;SDS011;22266;52.340;4.962;2023-06-26T10:30:42;1.00;;;1.00;;
36221;SDS011;22266;52.340;4.962;2023-06-26T10:33:12;1.00;;;1.00;;
36221;SDS011;22266;52.340;4.962;2023-06-26T10:35:45;1.00;;;0.00;;
36221;SDS011;22266;52.340;4.962;2023-06-26T10:38:12;0.50;;;0.50;;
36221;SDS011;22266;52.340;4.962;2023-06-26T10:40:42;1.00;;;0.50;;
36221;SDS011;22266;52.340;4.962;2023-06-26T10:43:15;1.25;;;1.00;;
36221;SDS011;22266;52.340;4.962;2023-06-26T10:45:46;0.75;;;0.75;;
36221;SDS011;22266;52.340;4.962;2023-06-26T10:48:19;2.00;;;2.00;;
36221;SDS011;22266;52.340;4.962;2023-06-26T10:50:48;1.50;;;1.00;;
36221;SDS011;22266;52.340;4.962;2023-06-26T10:55:51;1.00;;;1.00;;
36221;SDS011;22266;52.340;4.962;2023-06-26T11:03:40;0.00;;;0.00;;
36221;SDS011;22266;52.340;4.962;2023-06-26T11:06:11;1.00;;;1.00;;
36221;SDS011;22266;52.340;4.962;2023-06-26T11:14:20;0.00;;;0.00;;
36221;SDS011;22266;52.340;4.962;2023-06-26T11:16:48;0.00;;;0.00;;
36221;SDS011;22266;52.340;4.962;2023-06-26T11:19:18;0.50;;;0.50;;
36221;SDS011;22266;52.340;4.962;2023-06-26T11:21:46;0.75;;;0.25;;
36221;SDS011;22266;52.340;4.962;2023-06-26T11:24:13;0.00;;;0.00;;
36221;SDS011;22266;52.340;4.962;2023-06-26T11:26:40;0.00;;;0.00;;
36221;SDS011;22266;52.340;4.962;2023-06-26T11:29:08;0.00;;;0.00;;
36221;SDS011;22266;52.340;4.962;2023-06-26T11:31:36;0.00;;;0.00;;
36221;SDS011;22266;52.340;4.962;2023-06-26T11:34:08;1.00;;;1.00;;
36221;SDS011;22266;52.340;4.962;2023-06-26T11:36:39;1.00;;;1.00;;
36221;SDS011;22266;52.340;4.962;2023-06-26T11:39:09;0.75;;;0.75;;
36221;SDS011;22266;52.340;4.962;2023-06-26T11:41:36;2.50;;;1.00;;
36221;SDS011;22266;52.340;4.962;2023-06-26T11:44:04;0.75;;;0.75;;
36221;SDS011;22266;52.340;4.962;2023-06-26T11:46:32;1.25;;;0.75;;
36221;SDS011;22266;52.340;4.962;2023-06-26T11:49:02;1.00;;;0.75;;
36221;SDS011;22266;52.340;4.962;2023-06-26T11:51:30;1.50;;;0.50;;
36221;SDS011;22266;52.340;4.962;2023-06-26T11:53:57;0.50;;;0.50;;
36221;SDS011;22266;52.340;4.962;2023-06-26T11:56:24;1.75;;;0.75;;
36221;SDS011;22266;52.340;4.962;2023-06-26T11:59:05;1.00;;;1.00;;
36221;SDS011;22266;52.340;4.962;2023-06-26T12:01:40;1.00;;;1.00;;
36221;SDS011;22266;52.340;4.962;2023-06-26T12:04:11;1.50;;;1.50;;
36221;SDS011;22266;52.340;4.962;2023-06-26T12:06:42;0.50;;;0.00;;
36221;SDS011;22266;52.340;4.962;2023-06-26T12:09:11;0.25;;;0.25;;
36221;SDS011;22266;52.340;4.962;2023-06-26T12:11:40;1.50;;;0.50;;
36221;SDS011;22266;52.340;4.962;2023-06-26T12:14:09;0.75;;;0.75;;
36221;SDS011;22266;52.340;4.962;2023-06-26T12:16:36;1.25;;;1.00;;
36221;SDS011;22266;52.340;4.962;2023-06-26T12:19:05;1.00;;;1.00;;
36221;SDS011;22266;52.340;4.962;2023-06-26T12:24:03;2.75;;;1.75;;
36221;SDS011;22266;52.340;4.962;2023-06-26T12:26:31;1.00;;;1.00;;
36221;SDS011;22266;52.340;4.962;2023-06-26T12:29:03;2.00;;;1.00;;
36221;SDS011;22266;52.340;4.962;2023-06-26T12:31:34;1.75;;;0.75;;
36221;SDS011;22266;52.340;4.962;2023-06-26T12:34:08;2.50;;;1.00;;
36221;SDS011;22266;52.340;4.962;2023-06-26T12:36:40;1.00;;;1.00;;
36221;SDS011;22266;52.340;4.962;2023-06-26T12:39:09;3.00;;;2.00;;
36221;SDS011;22266;52.340;4.962;2023-06-26T12:41:43;3.00;;;1.50;;
36221;SDS011;22266;52.340;4.962;2023-06-26T12:44:17;1.00;;;1.00;;
36221;SDS011;22266;52.340;4.962;2023-06-26T12:46:46;1.00;;;1.00;;
36221;SDS011;22266;52.340;4.962;2023-06-26T12:49:15;1.00;;;1.00;;
36221;SDS011;22266;52.340;4.962;2023-06-26T12:51:56;1.00;;;1.00;;
36221;SDS011;22266;52.340;4.962;2023-06-26T12:54:22;2.00;;;2.00;;
36221;SDS011;22266;52.340;4.962;2023-06-26T12:56:49;2.00;;;1.00;;
36221;SDS011;22266;52.340;4.962;2023-06-26T12:59:15;1.00;;;1.00;;
36221;SDS011;22266;52.340;4.962;2023-06-26T13:01:42;0.50;;;0.50;;
36221;SDS011;22266;52.340;4.962;2023-06-26T13:04:08;1.00;;;1.00;;
36221;SDS011;22266;52.340;4.962;2023-06-26T13:06:35;0.50;;;0.25;;
36221;SDS011;22266;52.340;4.962;2023-06-26T13:09:02;1.75;;;1.75;;
36221;SDS011;22266;52.340;4.962;2023-06-26T13:11:32;3.00;;;1.50;;
36221;SDS011;22266;52.340;4.962;2023-06-26T13:13:59;0.25;;;0.25;;
36221;SDS011;22266;52.340;4.962;2023-06-26T13:16:36;0.00;;;0.00;;
36221;SDS011;22266;52.340;4.962;2023-06-26T13:19:03;1.00;;;1.00;;
36221;SDS011;22266;52.340;4.962;2023-06-26T13:21:30;2.00;;;0.00;;
36221;SDS011;22266;52.340;4.962;2023-06-26T13:23:56;0.00;;;0.00;;
36221;SDS011;22266;52.340;4.962;2023-06-26T13:26:24;0.00;;;0.00;;
36221;SDS011;22266;52.340;4.962;2023-06-26T13:29:03;0.00;;;0.00;;
36221;SDS011;22266;52.340;4.962;2023-06-26T13:31:30;0.00;;;0.00;;
36221;SDS011;22266;52.340;4.962;2023-06-26T13:33:57;0.00;;;0.00;;
36221;SDS011;22266;52.340;4.962;2023-06-26T13:36:25;0.75;;;0.75;;
36221;SDS011;22266;52.340;4.962;2023-06-26T13:38:52;1.00;;;0.00;;
36221;SDS011;22266;52.340;4.962;2023-06-26T13:41:22;0.75;;;0.00;;
36221;SDS011;22266;52.340;4.962;2023-06-26T13:43:50;1.25;;;1.25;;
36221;SDS011;22266;52.340;4.962;2023-06-26T13:46:17;1.00;;;1.00;;
36221;SDS011;22266;52.340;4.962;2023-06-26T13:48:44;2.75;;;1.75;;
36221;SDS011;22266;52.340;4.962;2023-06-26T13:51:11;1.00;;;1.00;;
36221;SDS011;22266;52.340;4.962;2023-06-26T13:53:38;0.75;;;0.75;;
36221;SDS011;22266;52.340;4.962;2023-06-26T13:56:05;1.00;;;1.00;;
36221;SDS011;22266;52.340;4.962;2023-06-26T13:58:31;1.00;;;0.00;;
36221;SDS011;22266;52.340;4.962;2023-06-26T14:00:59;1.25;;;0.00;;
36221;SDS011;22266;52.340;4.962;2023-06-26T14:03:26;1.25;;;1.00;;
36221;SDS011;22266;52.340;4.962;2023-06-26T14:05:54;1.00;;;1.00;;
36221;SDS011;22266;52.340;4.962;2023-06-26T14:08:21;0.25;;;0.25;;
36221;SDS011;22266;52.340;4.962;2023-06-26T14:10:48;1.50;;;1.50;;
36221;SDS011;22266;52.340;4.962;2023-06-26T14:13:14;0.50;;;0.50;;
36221;SDS011;22266;52.340;4.962;2023-06-26T14:15:42;0.75;;;0.75;;
36221;SDS011;22266;52.340;4.962;2023-06-26T14:18:09;1.25;;;1.25;;
36221;SDS011;22266;52.340;4.962;2023-06-26T14:20:35;2.50;;;2.50;;
36221;SDS011;22266;52.340;4.962;2023-06-26T14:23:03;1.25;;;1.25;;
36221;SDS011;22266;52.340;4.962;2023-06-26T14:25:30;1.75;;;1.75;;
36221;SDS011;22266;52.340;4.962;2023-06-26T14:27:57;1.75;;;1.00;;
36221;SDS011;22266;52.340;4.962;2023-06-26T14:30:24;0.75;;;0.75;;
36221;SDS011;22266;52.340;4.962;2023-06-26T14:32:51;1.00;;;1.00;;
36221;SDS011;22266;52.340;4.962;2023-06-26T14:35:17;1.00;;;1.00;;
36221;SDS011;22266;52.340;4.962;2023-06-26T14:37:44;1.00;;;1.00;;
36221;SDS011;22266;52.340;4.962;2023-06-26T14:40:11;0.75;;;0.75;;
36221;SDS011;22266;52.340;4.962;2023-06-26T14:42:38;1.00;;;1.00;;
36221;SDS011;22266;52.340;4.962;2023-06-26T14:45:05;1.00;;;0.75;;
36221;SDS011;22266;52.340;4.962;2023-06-26T14:47:33;0.75;;;0.75;;
36221;SDS011;22266;52.340;4.962;2023-06-26T14:50:00;1.75;;;1.50;;
36221;SDS011;22266;52.340;4.962;2023-06-26T14:52:26;2.00;;;1.25;;
36221;SDS011;22266;52.340;4.962;2023-06-26T14:54:53;0.00;;;0.00;;
36221;SDS011;22266;52.340;4.962;2023-06-26T14:57:19;0.50;;;0.50;;
36221;SDS011;22266;52.340;4.962;2023-06-26T14:59:46;0.00;;;0.00;;
36221;SDS011;22266;52.340;4.962;2023-06-26T15:02:12;0.00;;;0.00;;
36221;SDS011;22266;52.340;4.962;2023-06-26T15:04:39;1.25;;;0.75;;
36221;SDS011;22266;52.340;4.962;2023-06-26T15:07:05;1.00;;;1.00;;
36221;SDS011;22266;52.340;4.962;2023-06-26T15:09:32;2.00;;;0.50;;
36221;SDS011;22266;52.340;4.962;2023-06-26T15:11:59;1.00;;;1.00;;
36221;SDS011;22266;52.340;4.962;2023-06-26T15:14:25;0.00;;;0.00;;
36221;SDS011;22266;52.340;4.962;2023-06-26T15:16:52;1.50;;;0.75;;